»·PEaware :: N1718G KLAS-KSAN

N1718G :: KLAS-KSAN

FLIGHT INFORMATION

Flight Status: Arrived
Operator: Privately registered:
United States
More flights under this callsign
Pilot: Spencer M. (27733)
Aircraft: Unknown
(LEG2)
More flights by this aircraft type
Origin: KLAS McCarran Intl
United States
Destination: KSAN San Diego Intl-Lindbergh
United States
More flights between these airports :: More routes between these airports
Route: +CRESO V538 GFS V514 TRM V208 JLI V460 MZB
File this flight plan on PilotEdge
Remarks:
Altitude:
(Current/Filed)
12,000ft
Speed:
(Current/Filed)
250kts
Departed: 01-Aug-20 09:48 AM
Arrived: 01-Aug-20 11:11 AM
Distance/Time
Traveled:
225nm/1:23
Distance/Time
To Go:
Arrived

Flight Plot

Page will automatically refresh every two minutes.


Map Options




Map Legend


Flown Route
Filed Route
Departure Airport
Arrival Airport
Navaid (VOR, NDB)
Fix

Horizontal Profiles

Position Reports

Time Latitude Longitude Heading Altitude Ground
Speed
01-Aug-20 09:27 36.082661 -115.170002 89 2183ft 0kts
01-Aug-20 09:28 36.082661 -115.170002 89 2183ft 0kts
01-Aug-20 09:29 36.082661 -115.170002 89 2183ft 0kts
01-Aug-20 09:30 36.082661 -115.170002 89 2183ft 0kts
01-Aug-20 09:31 36.082661 -115.170002 89 2183ft 0kts
01-Aug-20 09:32 36.082661 -115.170002 89 2183ft 0kts
01-Aug-20 09:33 36.082661 -115.170002 89 2183ft 0kts
01-Aug-20 09:34 36.082699 -115.169845 70 2183ft 2kts
01-Aug-20 09:35 36.083433 -115.168684 27 2183ft 6kts
01-Aug-20 09:36 36.085284 -115.167679 26 2183ft 7kts
01-Aug-20 09:37 36.086518 -115.166372 21 2183ft 4kts
01-Aug-20 09:38 36.088476 -115.165251 30 2183ft 9kts
01-Aug-20 09:39 36.091188 -115.163688 25 2183ft 12kts
01-Aug-20 09:40 36.094720 -115.161668 24 2183ft 14kts
01-Aug-20 09:41 36.097927 -115.159843 25 2183ft 13kts
01-Aug-20 09:42 36.099735 -115.158035 69 2183ft 8kts
01-Aug-20 09:43 36.099847 -115.157425 99 2183ft 0kts
01-Aug-20 09:45 36.099847 -115.157425 99 2183ft 0kts
01-Aug-20 09:46 36.099847 -115.157425 99 2183ft 0kts
01-Aug-20 09:47 36.099847 -115.157425 99 2183ft 0kts
01-Aug-20 09:48 36.096526 -115.158250 205 2183ft 80kts
01-Aug-20 09:49 36.057998 -115.174920 187 3232ft 182kts
01-Aug-20 09:50 36.006779 -115.178718 187 4889ft 190kts
01-Aug-20 09:51 35.953508 -115.186335 188 6260ft 194kts
01-Aug-20 09:52 35.900087 -115.193889 188 7624ft 192kts
01-Aug-20 09:53 35.847614 -115.200765 188 9011ft 189kts
01-Aug-20 09:54 35.795244 -115.207714 189 10402ft 190kts
01-Aug-20 09:55 35.743179 -115.214567 189 11791ft 186kts
01-Aug-20 09:56 35.686488 -115.209371 185 12037ft 222kts
01-Aug-20 09:57 35.622035 -115.209255 181 12113ft 238kts
01-Aug-20 09:58 35.554711 -115.206124 182 12113ft 245kts
01-Aug-20 09:59 35.486207 -115.203653 181 12112ft 247kts
01-Aug-20 10:00 35.417352 -115.199691 181 12112ft 248kts
01-Aug-20 10:01 35.348588 -115.195491 181 12106ft 248kts
01-Aug-20 10:01 35.291016 -115.192005 181 12062ft 249kts
01-Aug-20 10:03 35.210323 -115.187145 181 11998ft 250kts
01-Aug-20 10:04 35.140975 -115.183172 184 11993ft 248kts
01-Aug-20 10:04 35.086377 -115.201133 202 11995ft 244kts
01-Aug-20 10:05 35.023380 -115.230045 202 12000ft 241kts
01-Aug-20 10:07 34.950192 -115.262472 203 11999ft 240kts
01-Aug-20 10:07 34.897952 -115.285457 204 12000ft 240kts
01-Aug-20 10:08 34.835072 -115.313109 205 12002ft 241kts
01-Aug-20 10:09 34.771993 -115.340841 205 12002ft 241kts
01-Aug-20 10:10 34.708878 -115.368529 205 12005ft 241kts
01-Aug-20 10:11 34.645871 -115.396093 205 12052ft 240kts
01-Aug-20 10:12 34.583190 -115.423474 205 12115ft 239kts
01-Aug-20 10:13 34.520605 -115.450799 205 12156ft 240kts
01-Aug-20 10:14 34.457371 -115.478448 205 12092ft 242kts
01-Aug-20 10:15 34.393797 -115.506205 205 11985ft 244kts
01-Aug-20 10:16 34.330743 -115.534874 213 12009ft 238kts
01-Aug-20 10:17 34.281227 -115.586535 227 12006ft 235kts
01-Aug-20 10:18 34.233775 -115.641106 226 12008ft 235kts
01-Aug-20 10:19 34.185960 -115.695023 226 12013ft 236kts
01-Aug-20 10:20 34.137813 -115.749116 225 12012ft 236kts
01-Aug-20 10:21 34.085956 -115.798280 217 12011ft 238kts
01-Aug-20 10:22 34.030905 -115.842868 217 11976ft 239kts
01-Aug-20 10:23 33.975772 -115.887500 217 11930ft 240kts
01-Aug-20 10:24 33.919987 -115.932754 217 11872ft 243kts
01-Aug-20 10:25 33.863717 -115.978225 217 11866ft 243kts
01-Aug-20 10:26 33.807674 -116.023372 217 11842ft 244kts
01-Aug-20 10:27 33.751087 -116.068933 217 11792ft 244kts
01-Aug-20 10:28 33.694868 -116.114024 217 11792ft 243kts
01-Aug-20 10:29 33.640478 -116.157159 217 11792ft 229kts
01-Aug-20 10:30 33.589082 -116.200584 220 11793ft 224kts
01-Aug-20 10:31 33.540016 -116.243772 219 11343ft 211kts
01-Aug-20 10:32 33.495598 -116.281600 218 10785ft 183kts
01-Aug-20 10:33 33.456124 -116.315106 218 10454ft 174kts
01-Aug-20 10:34 33.414876 -116.351592 219 10125ft 191kts
01-Aug-20 10:35 33.371447 -116.390030 218 9886ft 193kts
01-Aug-20 10:36 33.328687 -116.427236 217 9892ft 186kts
01-Aug-20 10:37 33.286558 -116.463767 217 9908ft 187kts
01-Aug-20 10:38 33.244537 -116.500293 226 9935ft 187kts
01-Aug-20 10:39 33.201532 -116.537475 222 9960ft 194kts
01-Aug-20 10:40 33.157610 -116.575737 222 9976ft 196kts
01-Aug-20 10:41 33.104177 -116.593501 192 10005ft 206kts
01-Aug-20 10:42 33.047106 -116.599507 189 10012ft 206kts
01-Aug-20 10:43 32.990100 -116.605355 187 10013ft 201kts
01-Aug-20 10:44 32.935460 -116.610603 186 10013ft 195kts
01-Aug-20 10:45 32.881387 -116.615272 185 10008ft 193kts
01-Aug-20 10:46 32.827645 -116.620233 186 10003ft 197kts
01-Aug-20 10:47 32.778945 -116.644154 243 10016ft 202kts
01-Aug-20 10:48 32.775952 -116.712492 272 10000ft 220kts
01-Aug-20 10:49 32.778149 -116.787766 271 9346ft 227kts
01-Aug-20 10:50 32.780009 -116.860351 272 8422ft 213kts
01-Aug-20 10:51 32.781499 -116.928008 270 7492ft 194kts
01-Aug-20 10:52 32.781801 -116.988935 269 6576ft 177kts
01-Aug-20 10:53 32.782065 -117.045412 268 5892ft 159kts
01-Aug-20 10:54 32.782220 -117.096743 269 4988ft 172kts
01-Aug-20 10:55 32.783295 -117.157879 269 4085ft 193kts
01-Aug-20 10:56 32.783726 -117.220438 264 3159ft 175kts
01-Aug-20 10:57 32.773609 -117.270905 252 2777ft 143kts
01-Aug-20 10:58 32.765518 -117.317728 277 2787ft 152kts
01-Aug-20 10:59 32.778077 -117.369187 285 2554ft 171kts
01-Aug-20 11:00 32.789305 -117.425652 253 2213ft 178kts
01-Aug-20 11:01 32.770027 -117.477775 278 1996ft 170kts
01-Aug-20 11:02 32.800381 -117.469668 93 1994ft 158kts
01-Aug-20 11:03 32.788107 -117.421935 108 1980ft 146kts
01-Aug-20 11:04 32.778250 -117.377167 108 2072ft 129kts
01-Aug-20 11:05 32.768223 -117.333887 110 2131ft 140kts
01-Aug-20 11:06 32.759382 -117.297058 112 1622ft 102kts
01-Aug-20 11:07 32.752212 -117.266218 110 1000ft 86kts
01-Aug-20 11:08 32.745918 -117.239855 109 787ft 82kts
01-Aug-20 11:09 32.739527 -117.214130 108 290ft 80kts
01-Aug-20 11:10 32.734181 -117.192046 101 19ft 24kts
01-Aug-20 11:11 32.734730 -117.189817 106 19ft 9kts
01-Aug-20 11:12 32.734161 -117.185924 78 19ft 7kts
01-Aug-20 11:13 32.734218 -117.185353 92 19ft 0kts

Navigation Log

Ident Type
Flight plan parsing failed, navigation log unavailable